Terminal Aerodrome Forecast
Issued by NWS

Home | Current Version | Previous Version | Graphics & Text | Print | Product List | Glossary On
Versions: 1 2 3 4 5 6 7 8 9 10 11 12 13 14 15 16 17 18 19 20 21 22 23 24 25 26 27 28 29 30 31 32 33 34 35 36 37 38 39 40 41 42 43 44 45 46 47 48 49 50
000
FTUS45 KBOU 272320
TAFAPA
TAF
KAPA 272320Z 2800/2824 03005KT P6SM SCT012 BKN020 OVC045
     FM280100 10004KT P6SM FEW015 SCT020 BKN045
     FM280500 22005KT P6SM SCT045 BKN060
     FM281100 25005KT P6SM VCFG SCT004 SCT060
     FM281600 11006KT P6SM SCT040 SCT080
     FM281900 09008KT P6SM SCT080 SCT200=

USA.gov is the U.S. government's official web portal to all federal, state and local government web resources and services.